Time;durP1;ratioP1;P1;durP2;ratioP2;P2;SDS_P1;SDS_P2;PMS_P1;PMS_P2;Temp;Humidity;BMP_temperature;BMP_pressure;BME280_temperature;BME280_humidity;BME280_pressure;Samples;Min_cycle;Max_cycle;Signal;HPM_P1;HPM_P2
2021/05/05 00:01:11;;;;;;;1.73;1.63;;;;;;;13.34;52.10;94270.97;6960091;28;20243;-71
2021/05/05 00:04:32;;;;;;;1.77;1.57;;;;;;;13.38;51.94;94272.25;6936971;28;20232;-71
2021/05/05 00:07:52;;;;;;;1.70;1.60;;;;;;;13.41;51.66;94266.59;6952893;28;20246;-71
2021/05/05 00:11:13;;;;;;;2.47;1.80;;;;;;;13.39;51.80;94281.09;6963573;28;20269;-71
2021/05/05 00:14:33;;;;;;;2.63;1.70;;;;;;;13.42;51.53;94278.09;6972106;28;20293;-71
2021/05/05 00:17:54;;;;;;;2.37;1.70;;;;;;;13.43;51.53;94271.75;6958514;28;20690;-71
2021/05/05 00:21:19;;;;;;;3.17;1.80;;;;;;;13.43;52.29;94269.91;6943955;28;20210;-71
2021/05/05 00:24:39;;;;;;;2.07;1.83;;;;;;;13.49;52.88;94265.69;6942092;28;20267;-70
2021/05/05 00:28:00;;;;;;;2.30;2.10;;;;;;;13.47;53.20;94273.06;6943000;28;20230;-71
2021/05/05 00:31:20;;;;;;;3.03;1.80;;;;;;;13.41;53.09;94273.75;6966290;28;20223;-71
2021/05/05 00:34:41;;;;;;;3.27;1.83;;;;;;;13.28;53.89;94264.50;6941956;28;20249;-71
2021/05/05 00:38:01;;;;;;;2.80;2.07;;;;;;;13.24;54.71;94273.84;6958141;28;20231;-72
2021/05/05 00:41:22;;;;;;;2.23;1.57;;;;;;;13.12;55.29;94251.28;6944596;28;20215;-71
2021/05/05 00:44:42;;;;;;;1.70;1.60;;;;;;;13.00;55.96;94252.66;6952663;28;20238;-71
2021/05/05 00:48:03;;;;;;;2.00;1.77;;;;;;;12.93;56.66;94242.88;6957403;28;20349;-71
2021/05/05 00:51:23;;;;;;;3.30;1.70;;;;;;;12.87;57.14;94244.41;6953575;28;20577;-72
2021/05/05 00:54:44;;;;;;;2.23;1.70;;;;;;;12.88;57.43;94248.69;6953173;28;20226;-72
2021/05/05 00:58:05;;;;;;;2.20;1.50;;;;;;;12.78;57.76;94251.59;6948481;28;20224;-71
2021/05/05 01:01:25;;;;;;;2.03;1.70;;;;;;;12.71;58.65;94247.97;6976089;28;20261;-71
2021/05/05 01:04:46;;;;;;;2.83;1.60;;;;;;;12.71;59.16;94244.47;6948947;28;20330;-72
2021/05/05 01:08:07;;;;;;;3.30;1.43;;;;;;;12.71;59.29;94245.31;6948933;28;20242;-72
2021/05/05 01:11:28;;;;;;;1.50;1.40;;;;;;;12.74;59.51;94236.13;6936648;28;20305;-71
2021/05/05 01:14:49;;;;;;;2.13;1.50;;;;;;;12.74;60.08;94239.63;6956329;28;20223;-72
2021/05/05 01:18:10;;;;;;;3.67;1.67;;;;;;;12.75;60.73;94227.13;6945896;28;20224;-71
2021/05/05 01:21:31;;;;;;;1.93;1.77;;;;;;;12.72;60.99;94227.50;6958009;28;20299;-72
2021/05/05 01:24:53;;;;;;;1.87;1.77;;;;;;;12.73;61.25;94223.81;6957638;28;20226;-72
2021/05/05 01:28:14;;;;;;;1.70;1.60;;;;;;;12.75;61.77;94209.31;6948457;28;20227;-72
2021/05/05 01:31:34;;;;;;;2.17;1.50;;;;;;;12.70;61.41;94235.66;6946453;28;20222;-71
2021/05/05 01:34:55;;;;;;;2.60;2.03;;;;;;;12.57;61.63;94230.06;6961678;28;20223;-71
2021/05/05 01:38:16;;;;;;;2.23;1.50;;;;;;;12.45;62.57;94226.94;6942367;28;20234;-71
2021/05/05 01:41:37;;;;;;;2.10;1.93;;;;;;;12.42;62.90;94210.50;6951848;28;20214;-71
2021/05/05 01:44:58;;;;;;;2.03;1.90;;;;;;;12.39;63.67;94214.31;6965784;28;20222;-71
2021/05/05 01:48:19;;;;;;;1.83;1.73;;;;;;;12.34;63.43;94202.50;6952637;28;20218;-71
2021/05/05 01:51:39;;;;;;;1.93;1.83;;;;;;;12.25;63.65;94203.56;6954526;28;20632;-71
2021/05/05 01:55:02;;;;;;;3.07;2.00;;;;;;;12.22;63.66;94204.72;6965743;28;20226;-71
2021/05/05 01:58:23;;;;;;;2.50;1.80;;;;;;;12.23;64.08;94213.53;6958778;28;20249;-71
2021/05/05 02:01:44;;;;;;;2.27;2.07;;;;;;;12.14;64.20;94217.22;6967396;28;20223;-71
2021/05/05 02:05:06;;;;;;;2.70;1.80;;;;;;;12.07;64.38;94222.41;6943083;28;20222;-71
2021/05/05 02:08:26;;;;;;;1.90;1.80;;;;;;;11.99;65.07;94223.25;6945956;28;20234;-71
2021/05/05 02:11:47;;;;;;;3.97;1.93;;;;;;;11.94;65.68;94222.94;6945439;28;20242;-70
2021/05/05 02:15:09;;;;;;;0.63;0.60;;;;;;;11.70;64.65;94230.91;6951957;28;20875;-71
2021/05/05 02:18:29;;;;;;;0.60;0.50;;;;;;;11.25;63.90;94211.97;6962352;28;20238;-71
2021/05/05 02:21:50;;;;;;;0.63;0.50;;;;;;;10.72;64.86;94219.34;6939453;28;20231;-71
2021/05/05 02:25:13;;;;;;;0.50;0.50;;;;;;;10.24;67.04;94222.69;6960680;28;20247;-71
2021/05/05 02:28:37;;;;;;;1.03;0.57;;;;;;;9.95;68.63;94235.44;6942858;28;20223;-71
2021/05/05 02:31:59;;;;;;;1.33;0.60;;;;;;;9.70;69.22;94258.31;6959171;28;20212;-70
2021/05/05 02:35:20;;;;;;;1.37;0.80;;;;;;;9.43;69.90;94280.47;6954782;28;20693;-70
2021/05/05 02:38:40;;;;;;;0.40;0.40;;;;;;;9.21;71.40;94270.31;6957160;28;20232;-70
2021/05/05 02:42:03;;;;;;;0.90;0.70;;;;;;;9.03;71.35;94267.69;6970602;28;20584;-70
2021/05/05 02:45:24;;;;;;;1.13;0.97;;;;;;;8.86;71.21;94276.44;6973287;28;20228;-70
2021/05/05 02:48:44;;;;;;;1.00;0.70;;;;;;;8.68;71.67;94288.81;6942437;28;20306;-70
2021/05/05 02:52:05;;;;;;;0.73;0.73;;;;;;;8.55;72.23;94309.50;6964189;28;20226;-70
2021/05/05 02:55:25;;;;;;;0.90;0.90;;;;;;;8.49;73.62;94307.44;6965701;28;20224;-71
2021/05/05 02:58:46;;;;;;;0.60;0.60;;;;;;;8.41;74.57;94325.84;6972797;28;20228;-71
2021/05/05 03:02:07;;;;;;;0.73;0.73;;;;;;;8.38;75.35;94347.31;6976452;28;22606;-71
2021/05/05 03:05:28;;;;;;;1.03;0.80;;;;;;;8.33;76.34;94350.38;6946521;28;20207;-72
2021/05/05 03:08:49;;;;;;;1.37;0.80;;;;;;;8.28;76.40;94357.03;6952823;28;20663;-70
2021/05/05 03:12:09;;;;;;;0.80;0.80;;;;;;;8.32;78.10;94379.63;6958576;28;20217;-71
2021/05/05 03:15:30;;;;;;;1.40;0.90;;;;;;;8.46;79.01;94392.38;6950560;28;20218;-71
2021/05/05 03:18:51;;;;;;;0.80;0.80;;;;;;;8.64;79.05;94389.81;6965542;28;20314;-71
2021/05/05 03:22:12;;;;;;;2.83;0.60;;;;;;;8.71;77.70;94412.91;6961922;28;20220;-71
2021/05/05 03:25:34;;;;;;;0.43;0.30;;;;;;;8.78;77.22;94413.16;6974471;28;20250;-71
2021/05/05 03:28:55;;;;;;;0.73;0.57;;;;;;;8.83;75.51;94405.63;6965632;28;20222;-69
2021/05/05 03:32:17;;;;;;;0.70;0.70;;;;;;;8.87;75.41;94415.75;6956821;28;20229;-71
2021/05/05 03:35:38;;;;;;;0.50;0.50;;;;;;;8.90;73.98;94404.88;6950384;28;20606;-71
2021/05/05 03:39:00;;;;;;;0.80;0.60;;;;;;;8.94;73.46;94403.63;6969199;28;20711;-71
2021/05/05 03:42:21;;;;;;;0.63;0.63;;;;;;;8.90;73.23;94404.88;6971069;28;20234;-71
2021/05/05 03:45:41;;;;;;;0.73;0.50;;;;;;;8.99;73.46;94397.88;6959777;28;20218;-70
2021/05/05 03:49:02;;;;;;;2.30;0.80;;;;;;;8.98;73.12;94398.84;6968696;28;20290;-73
2021/05/05 03:52:24;;;;;;;0.70;0.70;;;;;;;9.09;72.80;94401.31;6950199;28;20222;-67
2021/05/05 03:55:45;;;;;;;0.70;0.60;;;;;;;9.20;72.45;94418.81;6973421;28;20279;-71
2021/05/05 03:59:05;;;;;;;0.67;0.67;;;;;;;9.21;72.43;94423.94;6967731;28;20237;-70
2021/05/05 04:02:26;;;;;;;0.63;0.60;;;;;;;9.19;71.42;94422.44;6962779;28;20220;-71
2021/05/05 04:05:46;;;;;;;0.70;0.70;;;;;;;9.18;71.30;94423.41;6957576;28;20307;-70
2021/05/05 04:09:07;;;;;;;0.70;0.70;;;;;;;9.28;71.30;94430.31;6966907;28;20775;-70
2021/05/05 04:12:29;;;;;;;0.70;0.70;;;;;;;9.35;71.81;94436.72;6953386;28;20270;-70
2021/05/05 04:15:49;;;;;;;0.63;0.60;;;;;;;9.41;70.77;94441.41;6951744;28;20266;-70
2021/05/05 04:19:09;;;;;;;0.70;0.70;;;;;;;9.44;70.64;94434.97;6947624;28;20227;-69
2021/05/05 04:22:30;;;;;;;0.77;0.77;;;;;;;9.45;69.88;94439.31;6953265;28;20593;-71
2021/05/05 04:25:50;;;;;;;0.60;0.60;;;;;;;9.45;69.86;94452.56;6943020;28;20220;-69
2021/05/05 04:29:11;;;;;;;0.70;0.70;;;;;;;9.46;69.87;94460.34;6946014;28;20225;-69
2021/05/05 04:32:31;;;;;;;0.50;0.50;;;;;;;9.48;69.40;94455.72;6953642;28;20326;-71
2021/05/05 04:35:51;;;;;;;0.80;0.80;;;;;;;9.34;68.26;94464.19;6950067;28;20247;-69
2021/05/05 04:39:12;;;;;;;1.13;0.90;;;;;;;9.31;68.68;94461.81;6952824;28;20229;-69
2021/05/05 04:42:32;;;;;;;0.87;0.57;;;;;;;9.24;67.67;94468.69;6932831;28;20223;-71
2021/05/05 04:45:53;;;;;;;1.57;1.00;;;;;;;9.18;67.72;94487.81;6966281;28;20225;-70
2021/05/05 04:49:16;;;;;;;0.50;0.50;;;;;;;9.18;68.57;94468.44;6934129;28;20231;-70
2021/05/05 04:52:37;;;;;;;1.33;1.00;;;;;;;9.19;67.94;94481.53;6950187;28;20306;-69
2021/05/05 04:55:57;;;;;;;0.93;0.63;;;;;;;9.19;68.52;94489.50;6955286;28;20387;-69
2021/05/05 04:59:20;;;;;;;1.70;1.10;;;;;;;9.23;67.95;94492.69;6953607;28;20590;-72
2021/05/05 05:02:40;;;;;;;2.50;1.00;;;;;;;9.21;68.04;94499.91;6945685;28;20242;-70
2021/05/05 05:06:01;;;;;;;1.13;1.00;;;;;;;9.12;67.92;94509.59;6960047;28;20746;-70
2021/05/05 05:09:24;;;;;;;2.17;1.10;;;;;;;9.15;67.80;94517.25;6963525;28;20227;-71
2021/05/05 05:12:44;;;;;;;2.67;1.23;;;;;;;9.11;68.34;94521.16;6961231;28;20232;-70
2021/05/05 05:16:04;;;;;;;2.93;1.10;;;;;;;9.15;69.06;94527.03;6947819;28;20231;-70
2021/05/05 05:19:25;;;;;;;1.90;1.00;;;;;;;9.20;68.71;94532.72;6942256;28;20230;-70
2021/05/05 05:22:45;;;;;;;1.53;1.17;;;;;;;9.24;68.28;94526.97;6963598;28;20304;-70
2021/05/05 05:26:06;;;;;;;2.67;1.33;;;;;;;9.24;68.34;94526.97;6948227;28;20228;-70
2021/05/05 05:29:28;;;;;;;2.33;0.90;;;;;;;9.18;67.70;94542.59;6950753;28;20230;-71
2021/05/05 05:32:49;;;;;;;1.03;0.90;;;;;;;9.17;68.06;94540.94;6957010;28;20276;-71
2021/05/05 05:36:09;;;;;;;1.77;1.10;;;;;;;9.18;68.44;94556.69;6960726;28;20221;-71
2021/05/05 05:39:30;;;;;;;2.27;0.80;;;;;;;9.16;68.20;94550.69;6952462;28;20225;-70
2021/05/05 05:42:50;;;;;;;1.17;0.93;;;;;;;9.13;67.95;94571.34;6952880;28;20238;-70
2021/05/05 05:46:13;;;;;;;1.33;1.00;;;;;;;9.18;68.39;94567.28;6931511;28;20229;-70
2021/05/05 05:49:33;;;;;;;1.23;0.83;;;;;;;9.21;67.67;94563.50;6943256;28;20758;-70
2021/05/05 05:52:53;;;;;;;1.47;1.03;;;;;;;9.14;67.79;94575.66;6940017;28;20225;-70
2021/05/05 05:56:14;;;;;;;1.63;1.20;;;;;;;9.15;67.78;94570.22;6949861;28;20224;-71
2021/05/05 05:59:34;;;;;;;1.67;0.87;;;;;;;9.14;68.09;94576.50;6940532;28;20339;-69
2021/05/05 06:02:55;;;;;;;2.03;0.97;;;;;;;9.17;68.53;94578.00;6954985;28;20696;-70
2021/05/05 06:06:15;;;;;;;0.70;0.60;;;;;;;9.15;67.90;94570.22;6938538;28;20207;-69
2021/05/05 06:09:36;;;;;;;0.90;0.90;;;;;;;9.09;68.04;94585.84;6962560;28;20257;-69
2021/05/05 06:12:56;;;;;;;1.00;0.90;;;;;;;9.01;68.57;94590.03;6958853;28;20249;-72
2021/05/05 06:16:18;;;;;;;0.70;0.70;;;;;;;9.01;68.93;94592.69;6938998;28;20306;-72
2021/05/05 06:19:38;;;;;;;2.80;1.00;;;;;;;8.94;68.62;94594.25;6941854;28;20710;-72
2021/05/05 06:22:59;;;;;;;0.57;0.57;;;;;;;8.91;68.99;94591.88;6928252;28;20237;-70
2021/05/05 06:26:20;;;;;;;1.03;0.80;;;;;;;8.87;69.27;94613.47;6932148;28;20236;-71
2021/05/05 06:29:41;;;;;;;0.80;0.50;;;;;;;8.93;69.64;94619.06;6937972;28;20218;-71
2021/05/05 06:33:01;;;;;;;1.07;0.97;;;;;;;8.91;69.54;94612.22;6946222;28;20221;-71
2021/05/05 06:36:24;;;;;;;0.70;0.60;;;;;;;9.04;70.58;94623.38;6955349;28;20283;-72
2021/05/05 06:39:45;;;;;;;0.80;0.73;;;;;;;9.12;69.80;94634.06;6960225;28;20226;-71
2021/05/05 06:43:06;;;;;;;1.27;0.60;;;;;;;9.12;69.10;94627.94;6955444;28;20246;-71
2021/05/05 06:46:29;;;;;;;1.70;0.70;;;;;;;9.27;69.86;94634.44;6965627;28;20302;-72
2021/05/05 06:49:50;;;;;;;1.43;0.80;;;;;;;9.26;69.11;94628.31;6948425;28;20310;-72
2021/05/05 06:53:11;;;;;;;2.40;1.10;;;;;;;9.30;68.75;94629.72;6952114;28;20210;-71
2021/05/05 06:56:32;;;;;;;3.67;1.30;;;;;;;9.35;69.09;94631.94;6976100;28;20733;-72
2021/05/05 06:59:53;;;;;;;4.27;1.60;;;;;;;9.36;68.72;94641.53;6965028;28;20233;-72
2021/05/05 07:03:13;;;;;;;2.60;1.50;;;;;;;9.29;68.49;94654.53;6936482;28;20297;-71
2021/05/05 07:06:34;;;;;;;1.70;1.30;;;;;;;9.28;68.74;94652.88;6956440;28;20220;-70
2021/05/05 07:09:55;;;;;;;2.40;1.53;;;;;;;9.33;68.62;94655.06;6942440;28;20222;-71
2021/05/05 07:13:16;;;;;;;3.07;1.40;;;;;;;9.33;68.58;94655.06;6938684;28;20204;-71
2021/05/05 07:16:36;;;;;;;3.13;1.47;;;;;;;9.33;68.63;94657.72;6957773;28;20255;-71
2021/05/05 07:19:57;;;;;;;3.17;1.57;;;;;;;9.50;68.76;94649.03;6954149;28;20222;-71
2021/05/05 07:23:18;;;;;;;3.90;2.07;;;;;;;9.69;68.53;94656.94;6963050;28;20215;-71
2021/05/05 07:26:38;;;;;;;3.43;1.90;;;;;;;9.82;67.07;94652.13;6956921;28;20221;-71
2021/05/05 07:29:59;;;;;;;6.70;2.40;;;;;;;10.08;66.52;94654.94;6948021;28;20232;-71
2021/05/05 07:33:19;;;;;;;5.57;1.97;;;;;;;10.43;66.04;94671.94;6947509;28;20219;-71
2021/05/05 07:36:44;;;;;;;5.50;1.90;;;;;;;10.55;64.70;94670.75;6970511;28;20219;-71
2021/05/05 07:47:35;;;;;;;4.63;2.00;;;;;;;10.83;63.41;94664.38;6969654;28;20215;-71
2021/05/05 07:50:57;;;;;;;4.43;2.00;;;;;;;11.25;61.98;94671.72;6953326;28;20244;-71
2021/05/05 07:54:18;;;;;;;4.13;1.67;;;;;;;11.58;60.96;94673.63;6942189;28;20306;-71
2021/05/05 07:57:42;;;;;;;6.50;2.00;;;;;;;12.14;61.09;94667.81;6971061;28;20594;-72
2021/05/05 08:01:03;;;;;;;4.93;1.80;;;;;;;12.50;58.21;94672.94;6965703;28;20261;-70
2021/05/05 08:04:24;;;;;;;6.30;1.97;;;;;;;12.98;55.65;94683.69;6955144;28;20273;-72
2021/05/05 08:07:44;;;;;;;2.90;1.60;;;;;;;13.03;52.28;94681.38;6972394;28;20218;-71
2021/05/05 08:11:05;;;;;;;7.33;1.73;;;;;;;13.18;53.47;94684.25;6965516;28;20694;-71
2021/05/05 08:14:26;;;;;;;3.90;1.37;;;;;;;13.54;53.14;94682.91;6942898;28;20703;-72
2021/05/05 08:17:49;;;;;;;3.47;1.50;;;;;;;13.91;50.62;94677.03;6954941;28;20800;-74
2021/05/05 08:21:10;;;;;;;4.20;1.53;;;;;;;14.24;50.55;94677.75;6937797;28;20219;-72
2021/05/05 08:24:31;;;;;;;3.40;1.50;;;;;;;14.44;49.20;94688.91;6960385;28;20210;-72
2021/05/05 08:27:51;;;;;;;4.50;1.57;;;;;;;14.44;47.13;94673.72;6956944;28;20406;-72
2021/05/05 08:31:14;;;;;;;1.60;1.07;;;;;;;14.75;48.95;94683.59;6953833;28;20679;-73
2021/05/05 08:34:37;;;;;;;3.77;1.20;;;;;;;14.63;46.07;94675.16;6949002;28;20694;-72
2021/05/05 08:38:00;;;;;;;4.37;1.00;;;;;;;14.14;44.57;94693.97;6960744;28;20328;-73
2021/05/05 08:41:21;;;;;;;4.70;1.50;;;;;;;13.74;44.10;94699.41;6958122;28;20705;-72
2021/05/05 08:44:45;;;;;;;2.50;1.20;;;;;;;13.47;45.29;94703.28;6939149;28;20215;-72
2021/05/05 08:48:08;;;;;;;3.33;1.57;;;;;;;14.87;45.72;94696.41;6950926;28;20620;-72
2021/05/05 08:51:28;;;;;;;3.33;1.33;;;;;;;16.58;43.62;94703.78;6952109;28;20268;-72
2021/05/05 08:54:51;;;;;;;2.60;1.50;;;;;;;18.02;40.22;94709.91;6961961;28;20235;-73
2021/05/05 08:58:13;;;;;;;3.67;1.20;;;;;;;18.45;39.03;94716.03;6950862;28;20232;-73
2021/05/05 09:01:34;;;;;;;5.60;1.50;;;;;;;18.42;38.32;94721.78;6977185;28;20225;-72
2021/05/05 09:05:00;;;;;;;4.30;1.40;;;;;;;17.87;37.91;94717.22;6953363;28;20230;-73
2021/05/05 09:08:23;;;;;;;5.27;1.70;;;;;;;16.98;38.57;94745.38;6964152;28;20626;-72
2021/05/05 09:11:47;;;;;;;4.40;1.50;;;;;;;16.27;41.17;94750.34;6954498;28;20301;-73
2021/05/05 09:15:14;;;;;;;3.03;1.20;;;;;;;15.41;42.25;94749.88;6936530;28;20294;-72
2021/05/05 09:18:58;;;;;;;3.30;1.33;;;;;;;14.78;43.80;94748.22;6936192;28;20622;-72
2021/05/05 09:22:37;;;;;;;3.23;1.77;;;;;;;16.57;43.51;94743.16;6958648;28;20635;-73
2021/05/05 09:25:57;;;;;;;5.23;1.80;;;;;;;18.56;40.60;94745.06;6952772;28;21201;-72
2021/05/05 09:29:18;;;;;;;4.73;2.00;;;;;;;20.19;37.30;94732.38;6955938;28;20224;-72
2021/05/05 09:32:55;;;;;;;7.17;1.80;;;;;;;21.55;35.72;94747.66;6962102;28;20238;-72
2021/05/05 09:36:17;;;;;;;2.93;1.70;;;;;;;22.36;33.06;94750.47;6948269;28;20566;-74
2021/05/05 09:39:39;;;;;;;5.10;1.70;;;;;;;23.27;31.37;94755.25;6964594;28;20227;-73
2021/05/05 09:43:16;;;;;;;4.38;1.85;;;;;;;24.44;30.14;94760.16;6947665;28;20219;-73
2021/05/05 09:46:43;;;;;;;4.00;1.98;;;;;;;25.14;28.33;94750.16;6953047;28;20214;-73
2021/05/05 09:50:03;;;;;;;5.38;1.92;;;;;;;25.41;26.59;94765.94;6946708;28;20227;-75
2021/05/05 09:53:25;;;;;;;3.50;1.85;;;;;;;26.23;25.51;94764.66;6955158;28;20218;-73
2021/05/05 09:56:46;;;;;;;4.32;1.60;;;;;;;26.40;24.50;94767.41;6966202;28;20778;-73
2021/05/05 10:00:09;;;;;;;4.88;1.77;;;;;;;26.38;23.62;94780.44;6945446;28;20239;-73
2021/05/05 10:03:55;;;;;;;2.83;1.40;;;;;;;26.24;23.10;94774.47;6954591;28;20246;-73
2021/05/05 10:07:16;;;;;;;3.53;1.50;;;;;;;26.63;22.34;94783.59;6955458;28;20208;-73
2021/05/05 10:10:38;;;;;;;3.05;1.65;;;;;;;27.42;21.01;94784.28;6964452;28;20312;-73
2021/05/05 10:14:03;;;;;;;2.50;1.33;;;;;;;27.43;19.23;94775.03;6960588;28;20214;-73
2021/05/05 10:17:24;;;;;;;3.42;1.52;;;;;;;28.19;19.85;94795.13;6941876;28;20245;-73
2021/05/05 10:20:48;;;;;;;4.72;1.55;;;;;;;28.72;18.80;94799.78;6933174;28;20219;-72
2021/05/05 10:24:09;;;;;;;2.70;1.60;;;;;;;29.17;18.88;94806.75;6937220;28;20842;-74
2021/05/05 10:27:32;;;;;;;2.33;1.40;;;;;;;28.96;18.40;94808.50;6966909;28;20215;-73
2021/05/05 10:30:55;;;;;;;4.15;1.80;;;;;;;29.11;18.63;94794.94;6954701;28;20211;-73
2021/05/05 10:34:21;;;;;;;2.63;1.35;;;;;;;29.24;18.80;94813.63;6950337;28;20722;-74
2021/05/05 10:37:45;;;;;;;2.58;1.70;;;;;;;29.09;17.22;94818.16;6934754;28;20309;-73
2021/05/05 10:41:07;;;;;;;2.40;1.70;;;;;;;28.60;17.29;94799.13;6960464;28;20220;-73
2021/05/05 10:44:44;;;;;;;2.10;1.33;;;;;;;28.44;17.06;94795.41;6941117;28;20313;-73
2021/05/05 10:48:05;;;;;;;3.63;1.70;;;;;;;28.71;17.17;94808.22;6966060;28;20277;-73
2021/05/05 10:51:25;;;;;;;2.28;1.38;;;;;;;27.95;16.78;94782.81;6969650;28;20211;-73
2021/05/05 10:54:53;;;;;;;2.60;1.33;;;;;;;26.23;17.92;94820.97;6943679;28;20227;-73
2021/05/05 10:58:24;;;;;;;1.95;1.38;;;;;;;24.63;18.82;94824.13;6974638;28;20666;-72
2021/05/05 11:01:47;;;;;;;3.15;1.50;;;;;;;23.07;20.30;94832.13;6959572;28;20219;-72
2021/05/05 11:05:11;;;;;;;3.33;1.15;;;;;;;21.82;21.08;94805.09;6962097;28;20210;-73
2021/05/05 11:08:31;;;;;;;6.10;1.70;;;;;;;20.86;21.90;94829.28;6960065;28;20212;-72
2021/05/05 11:11:54;;;;;;;4.50;1.43;;;;;;;19.89;22.42;94823.56;6953692;28;20301;-73
2021/05/05 11:15:15;;;;;;;4.83;1.10;;;;;;;18.96;24.04;94843.00;6959620;28;20216;-72
2021/05/05 11:18:39;;;;;;;2.73;1.20;;;;;;;18.34;24.41;94849.13;6960172;28;20649;-72
2021/05/05 11:22:02;;;;;;;2.63;1.27;;;;;;;18.08;25.49;94843.50;6971196;28;20222;-72
2021/05/05 11:25:25;;;;;;;4.83;1.40;;;;;;;17.63;26.15;94860.78;6965439;28;20209;-72
2021/05/05 11:29:10;;;;;;;2.80;1.10;;;;;;;17.49;26.97;94866.97;6955743;28;20212;-72
2021/05/05 11:32:31;;;;;;;2.40;1.20;;;;;;;17.38;26.65;94860.22;6944705;28;20715;-72
2021/05/05 11:35:51;;;;;;;3.30;1.53;;;;;;;17.23;25.88;94863.94;6960526;28;20223;-72
2021/05/05 11:39:33;;;;;;;3.13;1.43;;;;;;;16.88;27.29;94844.91;6970368;28;20281;-72
2021/05/05 11:42:56;;;;;;;4.97;1.27;;;;;;;16.93;27.72;94896.13;6972798;28;20214;-72
2021/05/05 11:46:20;;;;;;;5.00;1.50;;;;;;;17.00;28.27;94861.38;6955915;28;20234;-72
2021/05/05 11:49:43;;;;;;;2.13;1.10;;;;;;;17.07;28.40;94881.06;6952910;28;20219;-71
2021/05/05 11:53:03;;;;;;;2.23;1.20;;;;;;;16.99;28.10;94881.16;6967914;28;20727;-72
2021/05/05 11:56:26;;;;;;;4.27;1.30;;;;;;;16.91;28.70;94892.78;6966646;28;20235;-72
2021/05/05 11:59:47;;;;;;;2.97;1.20;;;;;;;16.78;28.34;94895.28;6956812;28;20219;-72
2021/05/05 12:03:09;;;;;;;5.70;1.50;;;;;;;16.62;29.06;94898.94;6964875;28;20229;-72
2021/05/05 12:06:52;;;;;;;5.57;1.50;;;;;;;16.45;29.12;94904.56;6955918;28;20230;-72
2021/05/05 12:10:15;;;;;;;4.93;1.30;;;;;;;16.26;28.36;94877.28;6948297;28;20220;-72
2021/05/05 12:13:37;;;;;;;2.80;1.10;;;;;;;15.96;29.26;94871.97;6972459;28;20214;-72
2021/05/05 12:17:34;;;;;;;2.23;1.10;;;;;;;16.03;29.04;94899.72;6946830;28;20780;-71
2021/05/05 12:21:03;;;;;;;4.33;1.37;;;;;;;15.54;29.38;94916.06;6929527;28;20208;-72
2021/05/05 12:24:23;;;;;;;1.63;1.10;;;;;;;15.64;30.63;94915.88;6949087;28;20222;-71
2021/05/05 12:28:20;;;;;;;4.00;1.33;;;;;;;15.84;30.25;94899.16;6965171;28;20242;-72
2021/05/05 12:31:43;;;;;;;3.80;1.70;;;;;;;15.69;30.59;94905.47;6917068;28;20230;-71
2021/05/05 12:35:04;;;;;;;3.97;1.50;;;;;;;15.56;30.75;94902.50;6954105;28;20297;-72
2021/05/05 12:38:25;;;;;;;2.37;1.13;;;;;;;15.36;30.89;94924.31;6958954;28;20266;-71
2021/05/05 12:41:47;;;;;;;4.27;1.20;;;;;;;15.22;30.76;94926.88;6956461;28;20221;-72
2021/05/05 12:45:12;;;;;;;3.93;1.70;;;;;;;14.92;31.15;94923.09;6953312;28;20722;-72
2021/05/05 12:48:38;;;;;;;3.17;1.27;;;;;;;14.91;31.28;94924.09;6954655;28;20317;-71
2021/05/05 12:52:01;;;;;;;3.37;1.20;;;;;;;14.98;31.49;94919.75;6956297;28;20326;-71
2021/05/05 12:55:33;;;;;;;2.87;1.30;;;;;;;14.96;31.00;94917.25;6953962;28;20959;-72
2021/05/05 12:58:53;;;;;;;3.70;1.30;;;;;;;14.99;31.21;94930.25;6972759;28;20574;-71
2021/05/05 13:02:35;;;;;;;4.17;1.20;;;;;;;14.81;31.47;94926.13;6975295;28;20682;-72
2021/05/05 13:06:02;;;;;;;1.93;0.93;;;;;;;14.78;31.19;94918.47;6966323;28;20213;-71
2021/05/05 13:09:24;;;;;;;3.33;1.47;;;;;;;14.94;31.48;94911.22;6956774;28;20748;-72
2021/05/05 13:13:03;;;;;;;3.17;1.33;;;;;;;15.08;31.32;94922.22;6964708;28;20316;-72
2021/05/05 13:17:09;;;;;;;2.17;1.20;;;;;;;15.27;31.20;94933.38;6949083;28;20656;-70
2021/05/05 13:31:34;;;;;;;3.27;1.10;;;;;;;15.12;30.70;94934.25;6954304;28;20215;-71
2021/05/05 13:34:57;;;;;;;1.83;1.10;;;;;;;15.04;29.69;94932.41;6954147;28;20217;-70
2021/05/05 13:38:32;;;;;;;2.17;1.10;;;;;;;14.81;30.25;94943.00;6967839;28;20297;-72
2021/05/05 13:42:00;;;;;;;1.87;0.83;;;;;;;14.68;30.34;94968.59;6972012;28;20222;-72
2021/05/05 13:45:20;;;;;;;3.43;1.47;;;;;;;14.73;31.68;94987.63;6940349;28;20286;-72
2021/05/05 13:48:52;;;;;;;4.00;1.37;;;;;;;14.65;33.53;94992.94;6967339;28;20227;-71
2021/05/05 13:52:13;;;;;;;7.10;1.23;;;;;;;14.50;33.92;95015.00;6966169;28;20218;-73
2021/05/05 13:55:34;;;;;;;3.07;1.27;;;;;;;14.46;35.29;95012.81;6946216;28;20214;-73
2021/05/05 13:58:58;;;;;;;3.83;1.50;;;;;;;14.18;37.03;95021.06;6959047;28;20356;-71
2021/05/05 14:02:19;;;;;;;2.90;1.10;;;;;;;14.08;37.88;95025.72;6965459;28;20306;-72
2021/05/05 14:05:43;;;;;;;3.57;1.30;;;;;;;13.96;38.23;95036.88;6963255;28;20210;-71
2021/05/05 14:09:08;;;;;;;4.33;1.43;;;;;;;13.90;40.00;95041.03;6959859;28;20219;-72
2021/05/05 14:12:28;;;;;;;3.50;1.30;;;;;;;14.05;41.25;95046.59;6948012;28;20660;-71
2021/05/05 14:15:51;;;;;;;2.93;1.47;;;;;;;14.01;41.06;95037.22;6935485;28;20706;-71
2021/05/05 14:19:11;;;;;;;4.23;1.80;;;;;;;14.08;42.14;95039.06;6939062;28;20288;-71
2021/05/05 14:22:32;;;;;;;2.57;0.97;;;;;;;14.24;42.11;95026.75;6951552;28;20580;-71
2021/05/05 14:25:53;;;;;;;1.50;1.00;;;;;;;14.21;40.52;95003.91;6950257;28;20219;-72
2021/05/05 14:29:15;;;;;;;1.50;1.00;;;;;;;13.95;39.10;95030.72;6942674;28;20644;-71
2021/05/05 14:32:35;;;;;;;2.63;0.80;;;;;;;13.49;38.55;95017.84;6953191;28;20215;-71
2021/05/05 14:35:56;;;;;;;3.07;1.23;;;;;;;13.56;39.08;95024.22;6966370;28;20288;-71
2021/05/05 14:39:19;;;;;;;4.33;1.40;;;;;;;13.65;39.01;95028.59;6969465;28;21100;-72
2021/05/05 14:42:49;;;;;;;3.73;1.43;;;;;;;13.53;39.10;95038.69;6969866;28;20216;-71
2021/05/05 14:49:30;;;;;;;1.60;1.17;;;;;;;13.36;40.52;95034.28;6959284;28;20260;-71
2021/05/05 14:52:50;;;;;;;5.07;1.77;;;;;;;13.29;40.70;95030.56;6966105;28;20252;-71
2021/05/05 14:56:11;;;;;;;2.40;1.10;;;;;;;13.35;39.76;95031.78;6960988;28;20223;-72
2021/05/05 14:59:34;;;;;;;4.10;1.00;;;;;;;13.29;39.69;95023.41;6978073;28;20288;-71
2021/05/05 15:02:56;;;;;;;2.47;1.30;;;;;;;13.17;38.99;95035.34;6977926;28;20956;-71
2021/05/05 15:06:23;;;;;;;2.00;1.27;;;;;;;13.02;38.63;95028.06;6959531;28;20218;-71
2021/05/05 15:09:54;;;;;;;3.30;1.20;;;;;;;12.86;38.08;95021.63;6958078;28;20222;-71
2021/05/05 15:13:20;;;;;;;1.77;1.00;;;;;;;12.85;38.07;95016.44;6968610;28;20226;-71
2021/05/05 15:35:26;;;;;;;3.00;1.33;;;;;;;12.92;39.24;95011.31;6968927;28;20223;-73
2021/05/05 15:38:49;;;;;;;3.17;1.23;;;;;;;12.59;39.33;94996.91;6970411;28;20375;-72
2021/05/05 15:42:10;;;;;;;3.37;1.10;;;;;;;12.41;40.42;95007.59;6935883;28;20220;-72
2021/05/05 15:45:31;;;;;;;1.67;1.20;;;;;;;12.45;40.39;95006.28;6969633;28;20297;-73
2021/05/05 15:48:51;;;;;;;3.53;1.40;;;;;;;12.35;39.48;95010.84;6967785;28;20232;-73
2021/05/05 15:52:12;;;;;;;3.57;1.50;;;;;;;12.35;39.53;95010.84;6967394;28;20242;-72
2021/05/05 15:55:35;;;;;;;3.23;1.20;;;;;;;12.37;39.84;95008.91;6958997;28;20260;-72
2021/05/05 15:59:01;;;;;;;4.37;1.33;;;;;;;12.36;40.03;95015.19;6977278;28;20218;-73
2021/05/05 16:13:22;;;;;;;2.67;1.33;;;;;;;12.34;40.91;95041.97;6968923;28;20221;-73
2021/05/05 16:16:42;;;;;;;4.90;1.10;;;;;;;12.44;40.53;95041.88;6956799;28;20219;-72
2021/05/05 16:20:11;;;;;;;2.83;1.57;;;;;;;12.38;40.42;95034.50;6924722;28;20306;-73
2021/05/05 16:48:20;;;;;;;3.30;1.20;;;;;;;12.21;40.05;95004.25;6974716;28;20219;-73
2021/05/05 16:55:13;;;;;;;3.40;1.33;;;;;;;12.05;40.52;95030.69;6953385;28;20227;-73
2021/05/05 17:13:09;;;;;;;1.83;1.13;;;;;;;12.11;40.47;95031.94;6947493;28;20592;-72
2021/05/05 17:16:30;;;;;;;3.30;1.93;;;;;;;12.01;40.54;95035.50;6943039;28;20214;-73
2021/05/05 17:19:59;;;;;;;3.17;1.47;;;;;;;11.97;41.47;95028.78;6945063;28;20219;-73
2021/05/05 17:26:56;;;;;;;1.53;1.30;;;;;;;11.60;42.10;95028.84;6964468;28;20234;-74
2021/05/05 18:13:32;;;;;;;2.47;1.57;;;;;;;11.49;43.68;95058.28;6948203;28;20219;-73
2021/05/05 18:20:19;;;;;;;3.67;1.67;;;;;;;11.24;44.77;95074.03;6956658;28;20215;-72
2021/05/05 18:23:52;;;;;;;4.27;1.53;;;;;;;10.99;46.12;95070.19;6940932;28;20302;-72